sensor_id;sensor_type;location;lat;lon;timestamp;P1;durP1;ratioP1;P2;durP2;ratioP2
8708;SDS011;4391;48.678;9.280;2023-10-19T00:01:47;23.23;;;12.88;;
8708;SDS011;4391;48.678;9.280;2023-10-19T00:04:14;23.10;;;12.95;;
8708;SDS011;4391;48.678;9.280;2023-10-19T00:06:40;23.52;;;13.05;;
8708;SDS011;4391;48.678;9.280;2023-10-19T00:09:10;26.00;;;12.70;;
8708;SDS011;4391;48.678;9.280;2023-10-19T00:11:37;23.60;;;12.57;;
8708;SDS011;4391;48.678;9.280;2023-10-19T00:14:06;23.00;;;12.13;;
8708;SDS011;4391;48.678;9.280;2023-10-19T00:16:41;22.40;;;12.25;;
8708;SDS011;4391;48.678;9.280;2023-10-19T00:19:10;20.92;;;11.70;;
8708;SDS011;4391;48.678;9.280;2023-10-19T00:21:36;22.77;;;12.10;;
8708;SDS011;4391;48.678;9.280;2023-10-19T00:24:15;22.52;;;12.90;;
8708;SDS011;4391;48.678;9.280;2023-10-19T00:26:45;22.10;;;12.82;;
8708;SDS011;4391;48.678;9.280;2023-10-19T00:29:13;22.40;;;12.63;;
8708;SDS011;4391;48.678;9.280;2023-10-19T00:31:55;21.42;;;11.98;;
8708;SDS011;4391;48.678;9.280;2023-10-19T00:34:24;19.83;;;11.07;;
8708;SDS011;4391;48.678;9.280;2023-10-19T00:36:51;20.35;;;12.00;;
8708;SDS011;4391;48.678;9.280;2023-10-19T00:39:20;18.52;;;10.80;;
8708;SDS011;4391;48.678;9.280;2023-10-19T00:41:49;25.15;;;13.23;;
8708;SDS011;4391;48.678;9.280;2023-10-19T00:44:17;23.90;;;13.80;;
8708;SDS011;4391;48.678;9.280;2023-10-19T00:46:47;27.27;;;14.07;;
8708;SDS011;4391;48.678;9.280;2023-10-19T00:49:20;26.88;;;14.00;;
8708;SDS011;4391;48.678;9.280;2023-10-19T00:51:49;24.00;;;13.70;;
8708;SDS011;4391;48.678;9.280;2023-10-19T00:54:21;25.17;;;13.73;;
8708;SDS011;4391;48.678;9.280;2023-10-19T00:56:58;29.25;;;15.50;;
8708;SDS011;4391;48.678;9.280;2023-10-19T00:59:29;32.53;;;15.10;;
8708;SDS011;4391;48.678;9.280;2023-10-19T01:02:00;27.25;;;13.68;;
8708;SDS011;4391;48.678;9.280;2023-10-19T01:04:41;25.67;;;14.02;;
8708;SDS011;4391;48.678;9.280;2023-10-19T01:07:09;25.08;;;14.30;;
8708;SDS011;4391;48.678;9.280;2023-10-19T01:09:41;23.80;;;13.05;;
8708;SDS011;4391;48.678;9.280;2023-10-19T01:12:10;29.83;;;14.43;;
8708;SDS011;4391;48.678;9.280;2023-10-19T01:15:03;27.30;;;14.15;;
8708;SDS011;4391;48.678;9.280;2023-10-19T01:17:33;23.50;;;13.55;;
8708;SDS011;4391;48.678;9.280;2023-10-19T01:20:07;19.10;;;10.13;;
8708;SDS011;4391;48.678;9.280;2023-10-19T01:22:56;19.13;;;8.82;;
8708;SDS011;4391;48.678;9.280;2023-10-19T01:25:45;15.33;;;8.67;;
8708;SDS011;4391;48.678;9.280;2023-10-19T01:28:15;21.05;;;8.80;;
8708;SDS011;4391;48.678;9.280;2023-10-19T01:30:42;18.00;;;8.05;;
8708;SDS011;4391;48.678;9.280;2023-10-19T01:33:10;15.18;;;7.97;;
8708;SDS011;4391;48.678;9.280;2023-10-19T01:35:40;15.40;;;8.52;;
8708;SDS011;4391;48.678;9.280;2023-10-19T01:38:27;18.67;;;10.10;;
8708;SDS011;4391;48.678;9.280;2023-10-19T01:40:56;17.08;;;10.10;;
8708;SDS011;4391;48.678;9.280;2023-10-19T01:43:24;25.40;;;12.73;;
8708;SDS011;4391;48.678;9.280;2023-10-19T01:45:55;25.65;;;13.57;;
8708;SDS011;4391;48.678;9.280;2023-10-19T01:48:21;21.90;;;12.13;;
8708;SDS011;4391;48.678;9.280;2023-10-19T01:50:57;20.63;;;11.80;;
8708;SDS011;4391;48.678;9.280;2023-10-19T01:53:23;20.40;;;10.15;;
8708;SDS011;4391;48.678;9.280;2023-10-19T01:55:52;19.00;;;10.05;;
8708;SDS011;4391;48.678;9.280;2023-10-19T01:58:23;26.05;;;12.90;;
8708;SDS011;4391;48.678;9.280;2023-10-19T02:00:51;25.05;;;13.80;;
8708;SDS011;4391;48.678;9.280;2023-10-19T02:03:20;25.77;;;13.90;;
8708;SDS011;4391;48.678;9.280;2023-10-19T02:05:50;27.10;;;13.60;;
8708;SDS011;4391;48.678;9.280;2023-10-19T02:08:25;26.42;;;13.32;;
8708;SDS011;4391;48.678;9.280;2023-10-19T02:10:53;19.73;;;12.23;;
8708;SDS011;4391;48.678;9.280;2023-10-19T02:13:20;23.70;;;12.88;;
8708;SDS011;4391;48.678;9.280;2023-10-19T02:15:50;22.87;;;12.57;;
8708;SDS011;4391;48.678;9.280;2023-10-19T02:18:16;24.35;;;12.75;;
8708;SDS011;4391;48.678;9.280;2023-10-19T02:20:43;27.70;;;12.70;;
8708;SDS011;4391;48.678;9.280;2023-10-19T02:23:13;22.98;;;13.30;;
8708;SDS011;4391;48.678;9.280;2023-10-19T02:25:40;24.83;;;13.07;;
8708;SDS011;4391;48.678;9.280;2023-10-19T02:28:08;24.83;;;12.95;;
8708;SDS011;4391;48.678;9.280;2023-10-19T02:30:36;23.88;;;13.20;;
8708;SDS011;4391;48.678;9.280;2023-10-19T02:33:03;22.63;;;12.95;;
8708;SDS011;4391;48.678;9.280;2023-10-19T02:35:31;23.15;;;13.38;;
8708;SDS011;4391;48.678;9.280;2023-10-19T02:37:57;27.57;;;13.67;;
8708;SDS011;4391;48.678;9.280;2023-10-19T02:40:24;24.58;;;13.93;;
8708;SDS011;4391;48.678;9.280;2023-10-19T02:42:56;25.10;;;13.40;;
8708;SDS011;4391;48.678;9.280;2023-10-19T02:45:29;26.35;;;14.27;;
8708;SDS011;4391;48.678;9.280;2023-10-19T02:47:57;26.92;;;13.75;;
8708;SDS011;4391;48.678;9.280;2023-10-19T02:50:23;24.60;;;13.10;;
8708;SDS011;4391;48.678;9.280;2023-10-19T02:52:51;21.70;;;13.13;;
8708;SDS011;4391;48.678;9.280;2023-10-19T02:55:18;25.63;;;13.13;;
8708;SDS011;4391;48.678;9.280;2023-10-19T02:57:45;23.63;;;12.23;;
8708;SDS011;4391;48.678;9.280;2023-10-19T03:00:15;20.77;;;11.68;;
8708;SDS011;4391;48.678;9.280;2023-10-19T03:02:46;23.97;;;13.03;;
8708;SDS011;4391;48.678;9.280;2023-10-19T03:05:17;26.45;;;13.88;;
8708;SDS011;4391;48.678;9.280;2023-10-19T03:07:43;23.08;;;13.00;;
8708;SDS011;4391;48.678;9.280;2023-10-19T03:10:10;26.00;;;12.93;;
8708;SDS011;4391;48.678;9.280;2023-10-19T03:12:48;20.75;;;12.05;;
8708;SDS011;4391;48.678;9.280;2023-10-19T03:15:16;21.47;;;11.30;;
8708;SDS011;4391;48.678;9.280;2023-10-19T03:17:47;21.25;;;11.50;;
8708;SDS011;4391;48.678;9.280;2023-10-19T03:20:14;23.70;;;11.90;;
8708;SDS011;4391;48.678;9.280;2023-10-19T03:22:42;19.73;;;11.00;;
8708;SDS011;4391;48.678;9.280;2023-10-19T03:25:11;17.52;;;9.45;;
8708;SDS011;4391;48.678;9.280;2023-10-19T03:27:55;20.20;;;11.30;;
8708;SDS011;4391;48.678;9.280;2023-10-19T03:30:23;18.33;;;10.35;;
8708;SDS011;4391;48.678;9.280;2023-10-19T03:32:52;21.50;;;10.85;;
8708;SDS011;4391;48.678;9.280;2023-10-19T03:35:19;20.58;;;11.35;;
8708;SDS011;4391;48.678;9.280;2023-10-19T03:37:46;19.77;;;10.95;;
8708;SDS011;4391;48.678;9.280;2023-10-19T03:40:16;18.67;;;10.60;;
8708;SDS011;4391;48.678;9.280;2023-10-19T03:42:52;19.75;;;10.15;;
8708;SDS011;4391;48.678;9.280;2023-10-19T03:45:20;18.85;;;9.80;;
8708;SDS011;4391;48.678;9.280;2023-10-19T03:47:51;18.50;;;10.05;;
8708;SDS011;4391;48.678;9.280;2023-10-19T03:50:20;16.65;;;9.80;;
8708;SDS011;4391;48.678;9.280;2023-10-19T03:52:47;14.80;;;9.40;;
8708;SDS011;4391;48.678;9.280;2023-10-19T03:55:14;16.45;;;9.48;;
8708;SDS011;4391;48.678;9.280;2023-10-19T03:57:44;16.95;;;9.50;;
8708;SDS011;4391;48.678;9.280;2023-10-19T04:00:15;17.70;;;9.88;;
8708;SDS011;4391;48.678;9.280;2023-10-19T04:02:44;16.73;;;9.25;;
8708;SDS011;4391;48.678;9.280;2023-10-19T04:05:12;18.57;;;10.07;;
8708;SDS011;4391;48.678;9.280;2023-10-19T04:07:46;20.20;;;10.57;;
8708;SDS011;4391;48.678;9.280;2023-10-19T04:10:15;20.98;;;10.80;;
8708;SDS011;4391;48.678;9.280;2023-10-19T04:12:55;18.23;;;10.32;;
8708;SDS011;4391;48.678;9.280;2023-10-19T04:15:25;22.90;;;12.38;;
8708;SDS011;4391;48.678;9.280;2023-10-19T04:17:53;20.17;;;12.03;;
8708;SDS011;4391;48.678;9.280;2023-10-19T04:20:25;20.45;;;11.55;;
8708;SDS011;4391;48.678;9.280;2023-10-19T04:23:01;23.55;;;12.25;;
8708;SDS011;4391;48.678;9.280;2023-10-19T04:25:35;19.60;;;11.07;;
8708;SDS011;4391;48.678;9.280;2023-10-19T04:28:02;19.15;;;10.70;;
8708;SDS011;4391;48.678;9.280;2023-10-19T04:30:30;18.43;;;10.53;;
8708;SDS011;4391;48.678;9.280;2023-10-19T04:32:58;16.80;;;10.80;;
8708;SDS011;4391;48.678;9.280;2023-10-19T04:35:28;18.17;;;10.38;;
8708;SDS011;4391;48.678;9.280;2023-10-19T04:37:59;17.77;;;10.88;;
8708;SDS011;4391;48.678;9.280;2023-10-19T04:40:26;17.48;;;9.75;;
8708;SDS011;4391;48.678;9.280;2023-10-19T04:42:53;18.33;;;9.87;;
8708;SDS011;4391;48.678;9.280;2023-10-19T04:45:20;20.42;;;9.68;;
8708;SDS011;4391;48.678;9.280;2023-10-19T04:47:49;16.23;;;9.45;;
8708;SDS011;4391;48.678;9.280;2023-10-19T04:50:17;19.30;;;10.23;;
8708;SDS011;4391;48.678;9.280;2023-10-19T04:52:47;18.27;;;10.10;;
8708;SDS011;4391;48.678;9.280;2023-10-19T04:55:14;16.80;;;9.90;;
8708;SDS011;4391;48.678;9.280;2023-10-19T04:57:41;17.35;;;10.18;;
8708;SDS011;4391;48.678;9.280;2023-10-19T05:00:08;15.82;;;9.30;;
8708;SDS011;4391;48.678;9.280;2023-10-19T05:02:38;20.52;;;9.32;;
8708;SDS011;4391;48.678;9.280;2023-10-19T05:05:05;17.02;;;9.30;;
8708;SDS011;4391;48.678;9.280;2023-10-19T05:07:32;20.73;;;8.80;;
8708;SDS011;4391;48.678;9.280;2023-10-19T05:10:01;16.00;;;8.35;;
8708;SDS011;4391;48.678;9.280;2023-10-19T05:12:30;13.30;;;8.15;;
8708;SDS011;4391;48.678;9.280;2023-10-19T05:14:57;15.40;;;8.57;;
8708;SDS011;4391;48.678;9.280;2023-10-19T05:17:24;14.65;;;8.48;;
8708;SDS011;4391;48.678;9.280;2023-10-19T05:19:52;18.97;;;9.00;;
8708;SDS011;4391;48.678;9.280;2023-10-19T05:22:19;18.27;;;9.63;;
8708;SDS011;4391;48.678;9.280;2023-10-19T05:24:46;16.60;;;8.98;;
8708;SDS011;4391;48.678;9.280;2023-10-19T05:27:15;15.85;;;8.73;;
8708;SDS011;4391;48.678;9.280;2023-10-19T05:29:42;17.55;;;9.25;;
8708;SDS011;4391;48.678;9.280;2023-10-19T05:32:09;16.67;;;9.57;;
8708;SDS011;4391;48.678;9.280;2023-10-19T05:34:36;15.70;;;9.05;;
8708;SDS011;4391;48.678;9.280;2023-10-19T05:37:03;14.95;;;8.57;;
8708;SDS011;4391;48.678;9.280;2023-10-19T05:39:30;15.90;;;8.70;;
8708;SDS011;4391;48.678;9.280;2023-10-19T05:42:01;16.90;;;10.05;;
8708;SDS011;4391;48.678;9.280;2023-10-19T05:44:30;15.63;;;8.63;;
8708;SDS011;4391;48.678;9.280;2023-10-19T05:47:03;15.18;;;8.18;;
8708;SDS011;4391;48.678;9.280;2023-10-19T05:49:30;16.80;;;9.43;;
8708;SDS011;4391;48.678;9.280;2023-10-19T05:51:59;17.98;;;9.25;;
8708;SDS011;4391;48.678;9.280;2023-10-19T05:54:28;16.25;;;8.77;;
8708;SDS011;4391;48.678;9.280;2023-10-19T05:56:55;18.33;;;8.77;;
8708;SDS011;4391;48.678;9.280;2023-10-19T05:59:22;15.50;;;8.82;;
8708;SDS011;4391;48.678;9.280;2023-10-19T06:01:53;15.93;;;9.27;;
8708;SDS011;4391;48.678;9.280;2023-10-19T06:04:19;19.00;;;9.90;;
8708;SDS011;4391;48.678;9.280;2023-10-19T06:06:46;17.88;;;10.98;;
8708;SDS011;4391;48.678;9.280;2023-10-19T06:09:13;19.00;;;9.93;;
8708;SDS011;4391;48.678;9.280;2023-10-19T06:11:40;16.00;;;9.23;;
8708;SDS011;4391;48.678;9.280;2023-10-19T06:14:08;19.98;;;9.93;;
8708;SDS011;4391;48.678;9.280;2023-10-19T06:16:35;17.92;;;9.85;;
8708;SDS011;4391;48.678;9.280;2023-10-19T06:19:04;17.50;;;9.70;;
8708;SDS011;4391;48.678;9.280;2023-10-19T06:21:31;18.20;;;9.80;;
8708;SDS011;4391;48.678;9.280;2023-10-19T06:23:58;16.80;;;9.48;;
8708;SDS011;4391;48.678;9.280;2023-10-19T06:26:25;15.05;;;8.55;;
8708;SDS011;4391;48.678;9.280;2023-10-19T06:28:52;15.23;;;9.15;;
8708;SDS011;4391;48.678;9.280;2023-10-19T06:31:23;17.70;;;9.55;;
8708;SDS011;4391;48.678;9.280;2023-10-19T06:33:51;19.20;;;10.93;;
8708;SDS011;4391;48.678;9.280;2023-10-19T06:36:19;21.25;;;11.15;;
8708;SDS011;4391;48.678;9.280;2023-10-19T06:38:48;22.27;;;12.38;;
8708;SDS011;4391;48.678;9.280;2023-10-19T06:41:22;22.13;;;12.50;;
8708;SDS011;4391;48.678;9.280;2023-10-19T06:43:49;25.25;;;12.18;;
8708;SDS011;4391;48.678;9.280;2023-10-19T06:46:16;20.63;;;12.30;;
8708;SDS011;4391;48.678;9.280;2023-10-19T06:48:43;22.95;;;13.07;;
8708;SDS011;4391;48.678;9.280;2023-10-19T06:51:10;23.40;;;12.80;;
8708;SDS011;4391;48.678;9.280;2023-10-19T06:53:39;24.88;;;13.13;;
8708;SDS011;4391;48.678;9.280;2023-10-19T06:56:06;25.20;;;12.85;;
8708;SDS011;4391;48.678;9.280;2023-10-19T06:58:33;22.83;;;12.70;;
8708;SDS011;4391;48.678;9.280;2023-10-19T07:01:00;25.48;;;13.50;;
8708;SDS011;4391;48.678;9.280;2023-10-19T07:03:30;24.27;;;13.45;;
8708;SDS011;4391;48.678;9.280;2023-10-19T07:05:57;26.08;;;13.70;;
8708;SDS011;4391;48.678;9.280;2023-10-19T07:08:24;24.15;;;12.82;;
8708;SDS011;4391;48.678;9.280;2023-10-19T07:10:53;27.27;;;12.53;;
8708;SDS011;4391;48.678;9.280;2023-10-19T07:13:20;25.52;;;12.82;;
8708;SDS011;4391;48.678;9.280;2023-10-19T07:15:47;22.67;;;13.13;;
8708;SDS011;4391;48.678;9.280;2023-10-19T07:18:16;24.85;;;11.93;;
8708;SDS011;4391;48.678;9.280;2023-10-19T07:20:43;21.75;;;12.20;;
8708;SDS011;4391;48.678;9.280;2023-10-19T07:23:13;20.73;;;12.10;;
8708;SDS011;4391;48.678;9.280;2023-10-19T07:25:45;24.63;;;12.38;;
8708;SDS011;4391;48.678;9.280;2023-10-19T07:28:14;23.08;;;12.15;;
8708;SDS011;4391;48.678;9.280;2023-10-19T07:30:42;23.25;;;12.10;;
8708;SDS011;4391;48.678;9.280;2023-10-19T07:33:11;24.60;;;12.55;;
8708;SDS011;4391;48.678;9.280;2023-10-19T07:35:42;22.67;;;12.33;;
8708;SDS011;4391;48.678;9.280;2023-10-19T07:38:12;23.20;;;12.43;;
8708;SDS011;4391;48.678;9.280;2023-10-19T07:40:40;21.63;;;12.48;;
8708;SDS011;4391;48.678;9.280;2023-10-19T07:43:07;21.75;;;12.07;;
8708;SDS011;4391;48.678;9.280;2023-10-19T07:45:36;21.88;;;11.73;;
8708;SDS011;4391;48.678;9.280;2023-10-19T07:48:04;22.70;;;11.17;;
8708;SDS011;4391;48.678;9.280;2023-10-19T07:50:36;21.25;;;11.57;;
8708;SDS011;4391;48.678;9.280;2023-10-19T07:53:05;21.83;;;12.05;;
8708;SDS011;4391;48.678;9.280;2023-10-19T07:55:34;21.17;;;12.73;;
8708;SDS011;4391;48.678;9.280;2023-10-19T07:58:03;21.05;;;12.02;;
8708;SDS011;4391;48.678;9.280;2023-10-19T08:00:31;20.10;;;10.93;;
8708;SDS011;4391;48.678;9.280;2023-10-19T08:03:00;19.52;;;11.82;;
8708;SDS011;4391;48.678;9.280;2023-10-19T08:05:27;22.90;;;12.65;;
8708;SDS011;4391;48.678;9.280;2023-10-19T08:07:54;18.40;;;10.93;;
8708;SDS011;4391;48.678;9.280;2023-10-19T08:10:22;19.52;;;10.98;;
8708;SDS011;4391;48.678;9.280;2023-10-19T08:12:50;19.80;;;9.93;;
8708;SDS011;4391;48.678;9.280;2023-10-19T08:15:17;16.58;;;10.18;;
8708;SDS011;4391;48.678;9.280;2023-10-19T08:17:46;16.65;;;9.95;;
8708;SDS011;4391;48.678;9.280;2023-10-19T08:20:16;15.70;;;9.40;;
8708;SDS011;4391;48.678;9.280;2023-10-19T08:22:48;17.10;;;9.93;;
8708;SDS011;4391;48.678;9.280;2023-10-19T08:25:15;16.17;;;9.80;;
8708;SDS011;4391;48.678;9.280;2023-10-19T08:27:42;17.20;;;9.35;;
8708;SDS011;4391;48.678;9.280;2023-10-19T08:30:10;21.02;;;10.07;;
8708;SDS011;4391;48.678;9.280;2023-10-19T08:32:39;14.98;;;9.02;;
8708;SDS011;4391;48.678;9.280;2023-10-19T08:35:07;16.17;;;9.90;;
8708;SDS011;4391;48.678;9.280;2023-10-19T08:37:37;19.63;;;10.60;;
8708;SDS011;4391;48.678;9.280;2023-10-19T08:40:05;18.42;;;9.70;;
8708;SDS011;4391;48.678;9.280;2023-10-19T08:42:39;16.42;;;8.70;;
8708;SDS011;4391;48.678;9.280;2023-10-19T08:45:06;14.52;;;8.68;;
8708;SDS011;4391;48.678;9.280;2023-10-19T08:47:34;13.00;;;7.00;;
8708;SDS011;4391;48.678;9.280;2023-10-19T08:50:03;11.90;;;7.00;;
8708;SDS011;4391;48.678;9.280;2023-10-19T08:52:31;10.27;;;6.80;;
8708;SDS011;4391;48.678;9.280;2023-10-19T08:55:00;11.77;;;7.45;;
8708;SDS011;4391;48.678;9.280;2023-10-19T08:57:27;11.48;;;7.22;;
8708;SDS011;4391;48.678;9.280;2023-10-19T08:59:55;13.30;;;6.53;;
8708;SDS011;4391;48.678;9.280;2023-10-19T09:02:23;15.33;;;6.67;;
8708;SDS011;4391;48.678;9.280;2023-10-19T09:04:52;10.80;;;6.07;;
8708;SDS011;4391;48.678;9.280;2023-10-19T09:07:18;8.85;;;5.53;;
8708;SDS011;4391;48.678;9.280;2023-10-19T09:09:45;10.52;;;5.38;;
8708;SDS011;4391;48.678;9.280;2023-10-19T09:12:15;9.90;;;6.07;;
8708;SDS011;4391;48.678;9.280;2023-10-19T09:14:45;8.60;;;5.20;;
8708;SDS011;4391;48.678;9.280;2023-10-19T09:17:12;9.48;;;5.30;;
8708;SDS011;4391;48.678;9.280;2023-10-19T09:19:39;11.85;;;5.20;;
8708;SDS011;4391;48.678;9.280;2023-10-19T09:22:08;9.98;;;4.80;;
8708;SDS011;4391;48.678;9.280;2023-10-19T09:24:43;8.70;;;5.03;;
8708;SDS011;4391;48.678;9.280;2023-10-19T09:27:11;9.27;;;5.23;;
8708;SDS011;4391;48.678;9.280;2023-10-19T09:29:40;9.25;;;5.03;;
8708;SDS011;4391;48.678;9.280;2023-10-19T09:32:07;8.25;;;5.13;;
8708;SDS011;4391;48.678;9.280;2023-10-19T09:34:35;9.43;;;5.40;;
8708;SDS011;4391;48.678;9.280;2023-10-19T09:37:02;8.25;;;4.82;;
8708;SDS011;4391;48.678;9.280;2023-10-19T09:39:30;10.80;;;5.47;;
8708;SDS011;4391;48.678;9.280;2023-10-19T09:42:00;11.15;;;5.80;;
8708;SDS011;4391;48.678;9.280;2023-10-19T09:44:32;9.98;;;4.97;;
8708;SDS011;4391;48.678;9.280;2023-10-19T09:47:05;11.02;;;5.57;;
8708;SDS011;4391;48.678;9.280;2023-10-19T09:49:37;9.10;;;4.90;;
8708;SDS011;4391;48.678;9.280;2023-10-19T09:52:05;7.30;;;4.73;;
8708;SDS011;4391;48.678;9.280;2023-10-19T09:54:35;10.80;;;4.90;;
8708;SDS011;4391;48.678;9.280;2023-10-19T09:57:10;8.73;;;5.10;;
8708;SDS011;4391;48.678;9.280;2023-10-19T09:59:43;8.90;;;4.90;;
8708;SDS011;4391;48.678;9.280;2023-10-19T10:02:15;8.23;;;4.88;;
8708;SDS011;4391;48.678;9.280;2023-10-19T10:04:43;8.73;;;4.93;;
8708;SDS011;4391;48.678;9.280;2023-10-19T10:07:11;9.02;;;5.45;;
8708;SDS011;4391;48.678;9.280;2023-10-19T10:09:38;8.95;;;4.97;;
8708;SDS011;4391;48.678;9.280;2023-10-19T10:12:15;9.45;;;5.30;;
8708;SDS011;4391;48.678;9.280;2023-10-19T10:14:52;8.27;;;4.40;;
8708;SDS011;4391;48.678;9.280;2023-10-19T10:17:24;9.57;;;5.20;;
8708;SDS011;4391;48.678;9.280;2023-10-19T10:19:54;9.60;;;5.43;;
8708;SDS011;4391;48.678;9.280;2023-10-19T10:22:24;10.10;;;5.47;;
8708;SDS011;4391;48.678;9.280;2023-10-19T10:24:55;10.63;;;5.60;;
8708;SDS011;4391;48.678;9.280;2023-10-19T10:27:22;9.25;;;5.30;;
8708;SDS011;4391;48.678;9.280;2023-10-19T10:29:56;8.87;;;5.20;;
8708;SDS011;4391;48.678;9.280;2023-10-19T10:32:44;7.07;;;3.97;;
8708;SDS011;4391;48.678;9.280;2023-10-19T10:38:18;7.15;;;3.95;;
8708;SDS011;4391;48.678;9.280;2023-10-19T10:40:45;6.85;;;4.07;;
8708;SDS011;4391;48.678;9.280;2023-10-19T10:43:13;7.07;;;3.90;;
8708;SDS011;4391;48.678;9.280;2023-10-19T10:45:40;6.00;;;3.53;;
8708;SDS011;4391;48.678;9.280;2023-10-19T10:48:12;8.45;;;3.53;;
8708;SDS011;4391;48.678;9.280;2023-10-19T10:50:40;7.05;;;4.13;;
8708;SDS011;4391;48.678;9.280;2023-10-19T10:53:07;8.32;;;3.38;;
8708;SDS011;4391;48.678;9.280;2023-10-19T10:55:36;7.67;;;3.30;;
8708;SDS011;4391;48.678;9.280;2023-10-19T10:58:04;7.22;;;3.65;;
8708;SDS011;4391;48.678;9.280;2023-10-19T11:00:31;7.53;;;3.70;;
8708;SDS011;4391;48.678;9.280;2023-10-19T11:03:00;9.90;;;5.22;;
8708;SDS011;4391;48.678;9.280;2023-10-19T11:05:33;10.82;;;5.50;;
8708;SDS011;4391;48.678;9.280;2023-10-19T11:08:07;9.77;;;5.20;;
8708;SDS011;4391;48.678;9.280;2023-10-19T11:10:38;11.70;;;5.28;;
8708;SDS011;4391;48.678;9.280;2023-10-19T11:13:07;7.90;;;4.60;;
8708;SDS011;4391;48.678;9.280;2023-10-19T11:15:35;8.38;;;3.95;;
8708;SDS011;4391;48.678;9.280;2023-10-19T11:18:04;7.53;;;3.20;;
8708;SDS011;4391;48.678;9.280;2023-10-19T11:20:33;7.20;;;3.30;;
8708;SDS011;4391;48.678;9.280;2023-10-19T11:23:01;8.27;;;4.00;;
8708;SDS011;4391;48.678;9.280;2023-10-19T11:25:29;8.70;;;4.20;;
8708;SDS011;4391;48.678;9.280;2023-10-19T11:27:57;6.82;;;3.47;;
8708;SDS011;4391;48.678;9.280;2023-10-19T11:30:27;7.72;;;4.20;;
8708;SDS011;4391;48.678;9.280;2023-10-19T11:32:56;7.00;;;3.70;;
8708;SDS011;4391;48.678;9.280;2023-10-19T11:35:24;8.60;;;3.90;;
8708;SDS011;4391;48.678;9.280;2023-10-19T11:37:54;7.97;;;3.85;;
8708;SDS011;4391;48.678;9.280;2023-10-19T11:40:22;9.20;;;4.00;;
8708;SDS011;4391;48.678;9.280;2023-10-19T11:42:50;9.32;;;4.28;;
8708;SDS011;4391;48.678;9.280;2023-10-19T11:45:18;7.83;;;4.40;;
8708;SDS011;4391;48.678;9.280;2023-10-19T11:47:45;9.65;;;4.82;;
8708;SDS011;4391;48.678;9.280;2023-10-19T11:50:12;7.65;;;4.22;;
8708;SDS011;4391;48.678;9.280;2023-10-19T11:52:40;7.15;;;4.38;;
8708;SDS011;4391;48.678;9.280;2023-10-19T11:55:09;7.03;;;3.90;;
8708;SDS011;4391;48.678;9.280;2023-10-19T11:57:38;9.00;;;3.90;;
8708;SDS011;4391;48.678;9.280;2023-10-19T12:00:07;6.43;;;3.10;;
8708;SDS011;4391;48.678;9.280;2023-10-19T12:02:35;9.10;;;4.15;;
8708;SDS011;4391;48.678;9.280;2023-10-19T12:05:04;13.63;;;6.95;;
8708;SDS011;4391;48.678;9.280;2023-10-19T12:07:35;14.30;;;7.68;;
8708;SDS011;4391;48.678;9.280;2023-10-19T12:10:02;12.27;;;7.70;;
8708;SDS011;4391;48.678;9.280;2023-10-19T12:12:31;11.93;;;7.75;;
8708;SDS011;4391;48.678;9.280;2023-10-19T12:14:58;13.75;;;7.43;;
8708;SDS011;4391;48.678;9.280;2023-10-19T12:17:25;15.55;;;7.60;;
8708;SDS011;4391;48.678;9.280;2023-10-19T12:19:53;14.60;;;8.35;;
8708;SDS011;4391;48.678;9.280;2023-10-19T12:22:20;11.90;;;7.27;;
8708;SDS011;4391;48.678;9.280;2023-10-19T12:24:49;12.57;;;7.20;;
8708;SDS011;4391;48.678;9.280;2023-10-19T12:27:16;10.63;;;6.38;;
8708;SDS011;4391;48.678;9.280;2023-10-19T12:29:45;12.00;;;6.43;;
8708;SDS011;4391;48.678;9.280;2023-10-19T12:32:12;11.98;;;6.88;;
8708;SDS011;4391;48.678;9.280;2023-10-19T12:34:40;15.53;;;7.27;;
8708;SDS011;4391;48.678;9.280;2023-10-19T12:37:07;17.30;;;7.32;;
8708;SDS011;4391;48.678;9.280;2023-10-19T12:39:36;12.55;;;7.88;;
8708;SDS011;4391;48.678;9.280;2023-10-19T12:42:08;16.52;;;8.38;;
8708;SDS011;4391;48.678;9.280;2023-10-19T12:44:35;15.43;;;8.70;;
8708;SDS011;4391;48.678;9.280;2023-10-19T12:47:10;12.50;;;7.57;;
8708;SDS011;4391;48.678;9.280;2023-10-19T12:49:39;16.23;;;9.05;;
8708;SDS011;4391;48.678;9.280;2023-10-19T12:52:06;14.85;;;9.05;;
8708;SDS011;4391;48.678;9.280;2023-10-19T12:54:33;14.13;;;8.68;;
8708;SDS011;4391;48.678;9.280;2023-10-19T12:57:01;13.73;;;8.80;;
8708;SDS011;4391;48.678;9.280;2023-10-19T12:59:31;18.57;;;10.63;;
8708;SDS011;4391;48.678;9.280;2023-10-19T13:01:59;16.08;;;9.65;;
8708;SDS011;4391;48.678;9.280;2023-10-19T13:04:29;20.55;;;9.43;;
8708;SDS011;4391;48.678;9.280;2023-10-19T13:06:57;15.23;;;9.50;;
8708;SDS011;4391;48.678;9.280;2023-10-19T13:09:24;18.13;;;9.07;;
8708;SDS011;4391;48.678;9.280;2023-10-19T13:11:56;16.53;;;8.63;;
8708;SDS011;4391;48.678;9.280;2023-10-19T13:14:23;13.38;;;8.48;;
8708;SDS011;4391;48.678;9.280;2023-10-19T13:16:51;14.05;;;8.07;;
8708;SDS011;4391;48.678;9.280;2023-10-19T13:19:19;16.00;;;8.15;;
8708;SDS011;4391;48.678;9.280;2023-10-19T13:21:50;15.38;;;9.13;;
8708;SDS011;4391;48.678;9.280;2023-10-19T13:24:17;14.40;;;8.30;;
8708;SDS011;4391;48.678;9.280;2023-10-19T13:26:46;15.98;;;8.23;;
8708;SDS011;4391;48.678;9.280;2023-10-19T13:29:13;14.48;;;7.57;;
8708;SDS011;4391;48.678;9.280;2023-10-19T13:31:42;14.32;;;7.63;;
8708;SDS011;4391;48.678;9.280;2023-10-19T13:34:14;14.18;;;8.38;;
8708;SDS011;4391;48.678;9.280;2023-10-19T13:36:42;15.50;;;8.00;;
8708;SDS011;4391;48.678;9.280;2023-10-19T13:39:12;13.50;;;6.57;;
8708;SDS011;4391;48.678;9.280;2023-10-19T13:41:42;9.80;;;5.88;;
8708;SDS011;4391;48.678;9.280;2023-10-19T13:44:09;12.13;;;6.63;;
8708;SDS011;4391;48.678;9.280;2023-10-19T13:46:36;11.23;;;6.28;;
8708;SDS011;4391;48.678;9.280;2023-10-19T13:49:03;10.67;;;6.53;;
8708;SDS011;4391;48.678;9.280;2023-10-19T13:51:30;13.52;;;6.63;;
8708;SDS011;4391;48.678;9.280;2023-10-19T13:53:58;11.32;;;6.30;;
8708;SDS011;4391;48.678;9.280;2023-10-19T13:56:26;11.38;;;6.30;;
8708;SDS011;4391;48.678;9.280;2023-10-19T13:58:53;11.30;;;5.55;;
8708;SDS011;4391;48.678;9.280;2023-10-19T14:01:20;10.13;;;5.50;;
8708;SDS011;4391;48.678;9.280;2023-10-19T14:03:51;14.40;;;5.70;;
8708;SDS011;4391;48.678;9.280;2023-10-19T14:06:20;12.10;;;6.03;;
8708;SDS011;4391;48.678;9.280;2023-10-19T14:08:47;16.30;;;7.68;;
8708;SDS011;4391;48.678;9.280;2023-10-19T14:11:14;25.13;;;11.50;;
8708;SDS011;4391;48.678;9.280;2023-10-19T14:13:43;25.23;;;11.87;;
8708;SDS011;4391;48.678;9.280;2023-10-19T14:16:10;31.70;;;13.60;;
8708;SDS011;4391;48.678;9.280;2023-10-19T14:18:37;18.88;;;9.00;;
8708;SDS011;4391;48.678;9.280;2023-10-19T14:21:11;16.17;;;6.90;;
8708;SDS011;4391;48.678;9.280;2023-10-19T14:23:39;13.75;;;6.70;;
8708;SDS011;4391;48.678;9.280;2023-10-19T14:26:08;12.80;;;6.83;;
8708;SDS011;4391;48.678;9.280;2023-10-19T14:28:35;15.10;;;6.72;;
8708;SDS011;4391;48.678;9.280;2023-10-19T14:31:04;13.30;;;7.28;;
8708;SDS011;4391;48.678;9.280;2023-10-19T14:33:32;15.43;;;7.55;;
8708;SDS011;4391;48.678;9.280;2023-10-19T14:36:00;17.40;;;7.18;;
8708;SDS011;4391;48.678;9.280;2023-10-19T14:38:29;11.37;;;6.40;;
8708;SDS011;4391;48.678;9.280;2023-10-19T14:40:55;14.20;;;6.20;;
8708;SDS011;4391;48.678;9.280;2023-10-19T14:43:25;14.63;;;7.15;;
8708;SDS011;4391;48.678;9.280;2023-10-19T14:45:54;12.98;;;6.47;;
8708;SDS011;4391;48.678;9.280;2023-10-19T14:48:23;15.35;;;6.97;;
8708;SDS011;4391;48.678;9.280;2023-10-19T14:50:50;16.23;;;6.57;;
8708;SDS011;4391;48.678;9.280;2023-10-19T14:53:19;28.55;;;7.70;;
8708;SDS011;4391;48.678;9.280;2023-10-19T14:55:46;14.25;;;7.15;;
8708;SDS011;4391;48.678;9.280;2023-10-19T14:58:13;14.52;;;7.07;;
8708;SDS011;4391;48.678;9.280;2023-10-19T15:00:40;12.25;;;6.65;;
8708;SDS011;4391;48.678;9.280;2023-10-19T15:03:10;20.97;;;11.50;;
8708;SDS011;4391;48.678;9.280;2023-10-19T15:05:40;16.45;;;7.93;;
8708;SDS011;4391;48.678;9.280;2023-10-19T15:08:08;55.03;;;19.10;;
8708;SDS011;4391;48.678;9.280;2023-10-19T15:10:39;71.88;;;25.05;;
8708;SDS011;4391;48.678;9.280;2023-10-19T15:13:07;83.22;;;31.95;;